createdAt,value
2022-11-09T00:00:15.628Z,1014.39
2022-11-09T00:02:15.525Z,1014.45
2022-11-09T00:04:15.525Z,1014.45
2022-11-09T00:06:15.484Z,1014.45
2022-11-09T00:08:15.500Z,1014.45
2022-11-09T00:10:15.542Z,1014.38
2022-11-09T00:12:15.502Z,1014.38
2022-11-09T00:14:15.526Z,1014.41
2022-11-09T00:16:15.507Z,1014.44
2022-11-09T00:18:15.539Z,1014.44
2022-11-09T00:20:15.479Z,1014.42
2022-11-09T00:22:15.534Z,1014.39
2022-11-09T00:24:15.608Z,1014.42
2022-11-09T00:26:15.552Z,1014.41
2022-11-09T00:28:15.517Z,1014.41
2022-11-09T00:30:15.505Z,1014.40
2022-11-09T00:32:15.524Z,1014.43
2022-11-09T00:34:15.556Z,1014.42
2022-11-09T00:36:15.502Z,1014.42
2022-11-09T00:38:15.500Z,1014.42
2022-11-09T00:40:15.577Z,1014.43
2022-11-09T00:42:15.500Z,1014.43
2022-11-09T00:44:15.524Z,1014.43
2022-11-09T00:46:15.537Z,1014.43
2022-11-09T00:48:15.564Z,1014.43
2022-11-09T00:50:15.545Z,1014.39
2022-11-09T00:52:15.511Z,1014.34
2022-11-09T00:54:15.598Z,1014.33
2022-11-09T00:56:15.507Z,1014.33
2022-11-09T00:58:15.576Z,1014.34
2022-11-09T01:00:15.519Z,1014.33
2022-11-09T01:02:15.541Z,1014.28
2022-11-09T01:04:15.514Z,1014.28
2022-11-09T01:06:15.614Z,1014.28
2022-11-09T01:08:15.530Z,1014.24
2022-11-09T01:10:15.536Z,1014.31
2022-11-09T01:12:15.553Z,1014.35
2022-11-09T01:14:15.627Z,1014.35
2022-11-09T01:16:15.578Z,1014.36
2022-11-09T01:18:15.527Z,1014.34
2022-11-09T01:20:15.532Z,1014.36
2022-11-09T01:22:15.540Z,1014.34
2022-11-09T01:24:15.515Z,1014.34
2022-11-09T01:26:15.541Z,1014.39
2022-11-09T01:28:45.537Z,1014.39
2022-11-09T01:30:45.590Z,1014.35
2022-11-09T01:32:45.599Z,1014.36
2022-11-09T01:34:45.578Z,1014.36
2022-11-09T01:36:45.556Z,1014.34
2022-11-09T01:38:45.556Z,1014.34
2022-11-09T01:40:45.600Z,1014.32
2022-11-09T01:42:45.541Z,1014.32
2022-11-09T01:44:45.671Z,1014.33
2022-11-09T01:46:46.495Z,1014.29
2022-11-09T01:48:45.575Z,1014.26
2022-11-09T01:50:45.594Z,1014.22
2022-11-09T01:52:45.610Z,1014.22
2022-11-09T01:54:45.584Z,1014.26
2022-11-09T01:56:45.602Z,1014.28
2022-11-09T01:58:45.548Z,1014.29
2022-11-09T02:00:45.648Z,1014.20
2022-11-09T02:02:45.543Z,1014.20
2022-11-09T02:04:45.556Z,1014.23
2022-11-09T02:06:45.712Z,1014.23
2022-11-09T02:08:45.551Z,1014.23
2022-11-09T02:10:45.554Z,1014.23
2022-11-09T02:12:45.665Z,1014.10
2022-11-09T02:14:45.631Z,1014.11
2022-11-09T02:16:45.596Z,1014.09
2022-11-09T02:18:45.614Z,1014.11
2022-11-09T02:20:45.628Z,1014.11
2022-11-09T02:22:45.575Z,1014.05
2022-11-09T02:24:45.572Z,1014.06
2022-11-09T02:26:45.592Z,1013.96
2022-11-09T02:28:45.591Z,1013.92
2022-11-09T02:30:45.571Z,1013.92
2022-11-09T02:32:45.695Z,1013.87
2022-11-09T02:34:45.581Z,1013.82
2022-11-09T02:36:45.574Z,1013.84
2022-11-09T02:38:45.598Z,1013.84
2022-11-09T02:40:45.624Z,1013.91
2022-11-09T02:42:45.592Z,1013.86
2022-11-09T02:44:45.707Z,1013.90
2022-11-09T02:46:45.593Z,1013.88
2022-11-09T02:48:45.573Z,1013.88
2022-11-09T02:50:45.583Z,1013.88
2022-11-09T02:52:45.640Z,1013.91
2022-11-09T02:54:45.631Z,1013.89
2022-11-09T02:56:45.593Z,1013.89
2022-11-09T02:58:45.612Z,1013.89
2022-11-09T03:00:45.672Z,1013.86
2022-11-09T03:02:45.615Z,1013.86
2022-11-09T03:04:45.603Z,1013.88
2022-11-09T03:06:45.626Z,1013.92
2022-11-09T03:08:45.650Z,1013.92
2022-11-09T03:10:45.652Z,1013.85
2022-11-09T03:12:45.647Z,1013.92
2022-11-09T03:14:45.737Z,1013.91
2022-11-09T03:16:50.023Z,1013.91
2022-11-09T03:18:45.645Z,1013.94
2022-11-09T03:20:45.669Z,1013.98
2022-11-09T03:22:45.599Z,1014.05
2022-11-09T03:24:45.590Z,1014.01
2022-11-09T03:26:45.643Z,1014.01
2022-11-09T03:29:15.654Z,1014.06
2022-11-09T03:31:15.635Z,1014.06
2022-11-09T03:33:15.688Z,1014.04
2022-11-09T03:35:15.669Z,1014.01
2022-11-09T03:37:15.665Z,1014.06
2022-11-09T03:39:15.628Z,1014.06
2022-11-09T03:41:15.652Z,1014.04
2022-11-09T03:43:15.632Z,1014.10
2022-11-09T03:45:15.677Z,1014.07
2022-11-09T03:47:15.634Z,1014.01
2022-11-09T03:49:15.636Z,1014.01
2022-11-09T03:51:15.629Z,1014.10
2022-11-09T03:53:15.624Z,1014.09
2022-11-09T03:55:15.631Z,1014.14
2022-11-09T03:57:15.681Z,1014.16
2022-11-09T03:59:15.667Z,1014.16
2022-11-09T04:01:15.730Z,1014.21
2022-11-09T04:03:15.672Z,1014.26
2022-11-09T04:05:15.658Z,1014.28
2022-11-09T04:07:15.685Z,1014.38
2022-11-09T04:09:15.635Z,1014.38
2022-11-09T04:11:15.642Z,1014.38
2022-11-09T04:13:15.716Z,1014.47
2022-11-09T04:15:15.642Z,1014.61
2022-11-09T04:17:15.645Z,1014.61
2022-11-09T04:19:15.640Z,1014.71
2022-11-09T04:21:19.076Z,1014.79
2022-11-09T04:23:15.704Z,1014.91
2022-11-09T04:25:15.760Z,1014.94
2022-11-09T04:27:15.638Z,1014.94
2022-11-09T04:29:15.706Z,1014.92
2022-11-09T04:31:15.694Z,1014.91
2022-11-09T04:33:15.688Z,1014.93
2022-11-09T04:35:15.683Z,1015.00
2022-11-09T04:37:15.664Z,1015.00
2022-11-09T04:39:15.646Z,1014.99
2022-11-09T04:41:15.718Z,1014.98
2022-11-09T04:43:15.675Z,1014.95
2022-11-09T04:45:15.684Z,1014.95
2022-11-09T04:47:15.658Z,1015.08
2022-11-09T04:49:15.775Z,1015.06
2022-11-09T04:51:15.713Z,1015.06
2022-11-09T04:53:15.740Z,1015.12
2022-11-09T04:55:15.716Z,1015.12
2022-11-09T04:57:15.795Z,1015.13
2022-11-09T04:59:15.714Z,1015.14
2022-11-09T05:01:15.745Z,1015.18
2022-11-09T05:03:15.795Z,1015.20
2022-11-09T05:05:15.730Z,1015.20
2022-11-09T05:07:15.762Z,1015.28
2022-11-09T05:09:15.685Z,1015.32
2022-11-09T05:11:15.762Z,1015.45
2022-11-09T05:13:15.667Z,1015.45
2022-11-09T05:15:15.780Z,1015.40
2022-11-09T05:17:15.793Z,1015.42
2022-11-09T05:19:15.820Z,1015.47
2022-11-09T05:21:15.879Z,1015.49
2022-11-09T05:23:15.737Z,1015.49
2022-11-09T05:25:15.817Z,1015.42
2022-11-09T05:27:15.804Z,1015.45
2022-11-09T05:29:45.752Z,1015.40
2022-11-09T05:31:51.778Z,1015.40
2022-11-09T05:33:45.721Z,1015.40
2022-11-09T05:35:45.743Z,1015.35
2022-11-09T05:37:45.812Z,1015.36
2022-11-09T05:39:45.769Z,1015.43
2022-11-09T05:41:45.927Z,1015.43
2022-11-09T05:43:45.777Z,1015.43
2022-11-09T05:47:44.686Z,1015.43
2022-11-09T05:49:44.736Z,1015.50
2022-11-09T05:51:44.716Z,1015.50
2022-11-09T05:53:46.762Z,1015.40
2022-11-09T05:55:44.780Z,1015.31
2022-11-09T05:57:45.651Z,1015.29
2022-11-09T05:59:44.608Z,1015.31
2022-11-09T06:01:44.777Z,1015.31
2022-11-09T06:03:44.661Z,1015.28
2022-11-09T06:05:44.735Z,1015.29
2022-11-09T06:07:44.720Z,1015.31
2022-11-09T06:09:44.748Z,1015.28
2022-11-09T06:11:44.678Z,1015.28
2022-11-09T06:13:44.620Z,1015.28
2022-11-09T06:15:44.665Z,1015.25
2022-11-09T06:17:44.728Z,1015.20
2022-11-09T06:19:44.711Z,1015.20
2022-11-09T06:21:44.658Z,1015.19
2022-11-09T06:23:44.795Z,1015.19
2022-11-09T06:25:44.658Z,1015.13
2022-11-09T06:27:44.681Z,1015.13
2022-11-09T06:29:44.686Z,1015.13
2022-11-09T06:31:44.755Z,1015.12
2022-11-09T06:33:44.634Z,1015.14
2022-11-09T06:35:44.748Z,1015.10
2022-11-09T06:37:44.752Z,1015.10
2022-11-09T06:39:44.752Z,1015.10
2022-11-09T06:41:47.407Z,1015.07
2022-11-09T06:43:44.694Z,1015.12
2022-11-09T06:45:44.666Z,1015.21
2022-11-09T06:47:44.696Z,1015.21
2022-11-09T06:49:44.674Z,1015.27
2022-11-09T06:51:44.684Z,1015.34
2022-11-09T06:53:44.707Z,1015.34
2022-11-09T06:55:49.112Z,1015.37
2022-11-09T06:57:44.656Z,1015.37
2022-11-09T06:59:44.668Z,1015.40
2022-11-09T07:01:44.662Z,1015.47
2022-11-09T07:03:44.643Z,1015.49
2022-11-09T07:05:44.827Z,1015.49
2022-11-09T07:07:44.769Z,1015.49
2022-11-09T07:09:44.856Z,1015.42
2022-11-09T07:11:44.870Z,1015.41
2022-11-09T07:13:44.694Z,1015.40
2022-11-09T07:15:44.679Z,1015.40
2022-11-09T07:17:44.767Z,1015.41
2022-11-09T07:19:44.826Z,1015.39
2022-11-09T07:21:44.754Z,1015.43
2022-11-09T07:23:44.667Z,1015.40
2022-11-09T07:26:14.692Z,1015.42
2022-11-09T07:28:14.687Z,1015.47
2022-11-09T07:30:14.734Z,1015.47
2022-11-09T07:32:14.821Z,1015.53
2022-11-09T07:34:14.722Z,1015.53
2022-11-09T07:36:20.940Z,1015.56
2022-11-09T07:38:14.691Z,1015.54
2022-11-09T07:40:14.711Z,1015.54
2022-11-09T07:42:14.714Z,1015.52
2022-11-09T07:44:14.664Z,1015.55
2022-11-09T07:46:14.713Z,1015.62
2022-11-09T07:48:14.700Z,1015.62
2022-11-09T07:50:14.701Z,1015.66
2022-11-09T07:52:14.861Z,1015.66
2022-11-09T07:54:14.723Z,1015.71
2022-11-09T07:56:14.671Z,1015.68
2022-11-09T07:58:14.696Z,1015.68
2022-11-09T08:00:14.719Z,1015.72
2022-11-09T08:02:15.097Z,1015.73
2022-11-09T08:04:14.735Z,1015.77
2022-11-09T08:06:18.457Z,1015.79
2022-11-09T08:08:14.679Z,1015.79
2022-11-09T08:10:14.979Z,1015.82
2022-11-09T08:12:14.759Z,1015.84
2022-11-09T08:14:14.702Z,1015.84
2022-11-09T08:16:14.694Z,1015.84
2022-11-09T08:18:14.845Z,1015.97
2022-11-09T08:20:14.806Z,1016.00
2022-11-09T08:22:14.734Z,1015.96
2022-11-09T08:24:14.760Z,1016.01
2022-11-09T08:26:14.715Z,1016.01
2022-11-09T08:28:15.179Z,1015.98
2022-11-09T08:30:14.767Z,1016.05
2022-11-09T08:32:14.721Z,1016.09
2022-11-09T08:34:14.730Z,1016.11
2022-11-09T08:36:14.845Z,1016.11
2022-11-09T08:38:14.788Z,1016.23
2022-11-09T08:40:14.773Z,1016.30
2022-11-09T08:42:14.753Z,1016.25
2022-11-09T08:44:14.724Z,1016.25
2022-11-09T08:46:14.744Z,1016.52
2022-11-09T08:48:14.860Z,1016.59
2022-11-09T08:50:14.757Z,1016.63
2022-11-09T08:52:14.730Z,1016.64
2022-11-09T08:54:14.761Z,1016.64
2022-11-09T08:56:14.728Z,1016.64
2022-11-09T08:58:14.941Z,1016.74
2022-11-09T09:00:14.727Z,1016.75
2022-11-09T09:02:14.817Z,1016.79
2022-11-09T09:04:14.776Z,1016.79
2022-11-09T09:06:14.888Z,1016.74
2022-11-09T09:08:14.730Z,1016.76
2022-11-09T09:10:14.763Z,1016.70
2022-11-09T09:12:14.755Z,1016.65
2022-11-09T09:14:14.762Z,1016.65
2022-11-09T09:16:14.756Z,1016.62
2022-11-09T09:18:14.738Z,1016.65
2022-11-09T09:20:14.891Z,1016.71
2022-11-09T09:22:14.738Z,1016.71
2022-11-09T09:24:14.765Z,1016.71
2022-11-09T09:26:44.753Z,1016.77
2022-11-09T09:28:44.953Z,1016.82
2022-11-09T09:30:44.970Z,1016.82
2022-11-09T09:32:44.790Z,1016.82
2022-11-09T09:34:44.777Z,1016.84
2022-11-09T09:36:47.677Z,1016.84
2022-11-09T09:38:44.756Z,1016.79
2022-11-09T09:40:44.764Z,1016.77
2022-11-09T09:42:44.799Z,1016.77
2022-11-09T09:44:44.875Z,1016.75
2022-11-09T09:46:44.782Z,1016.85
2022-11-09T09:48:44.897Z,1016.82
2022-11-09T09:50:44.808Z,1016.82
2022-11-09T09:52:54.187Z,1016.83
2022-11-09T09:54:44.751Z,1016.76
2022-11-09T09:56:44.894Z,1016.73
2022-11-09T09:58:44.770Z,1016.71
2022-11-09T10:00:44.799Z,1016.71
2022-11-09T10:02:44.831Z,1016.68
2022-11-09T10:04:44.919Z,1016.68
2022-11-09T10:06:44.976Z,1016.66
2022-11-09T10:08:44.840Z,1016.69
2022-11-09T10:10:44.784Z,1016.69
2022-11-09T10:12:44.778Z,1016.67
2022-11-09T10:14:44.813Z,1016.60
2022-11-09T10:16:44.897Z,1016.60
2022-11-09T10:18:44.917Z,1016.60
2022-11-09T10:20:46.993Z,1016.37
2022-11-09T10:22:44.818Z,1016.37
2022-11-09T10:25:04.901Z,1016.26
2022-11-09T10:26:44.787Z,1016.21
2022-11-09T10:29:09.312Z,1016.21
2022-11-09T10:30:44.792Z,1016.06
2022-11-09T10:32:44.803Z,1016.02
2022-11-09T10:34:44.849Z,1016.02
2022-11-09T10:36:44.791Z,1015.88
2022-11-09T10:38:44.816Z,1015.88
2022-11-09T10:40:44.974Z,1015.80
2022-11-09T10:42:44.798Z,1015.83
2022-11-09T10:44:44.807Z,1015.87
2022-11-09T10:46:44.812Z,1015.87
2022-11-09T10:48:44.843Z,1015.93
2022-11-09T10:50:44.846Z,1015.98
2022-11-09T10:52:47.513Z,1016.04
2022-11-09T10:54:44.811Z,1016.03
2022-11-09T10:57:04.976Z,1016.03
2022-11-09T10:58:44.840Z,1016.03
2022-11-09T11:00:44.833Z,1015.90
2022-11-09T11:02:44.861Z,1015.84
2022-11-09T11:04:44.856Z,1015.82
2022-11-09T11:06:44.915Z,1015.82
2022-11-09T11:08:44.852Z,1015.77
2022-11-09T11:10:44.845Z,1015.79
2022-11-09T11:12:44.860Z,1015.80
2022-11-09T11:14:44.859Z,1015.80
2022-11-09T11:16:44.827Z,1015.86
2022-11-09T11:18:44.896Z,1015.89
2022-11-09T11:20:44.851Z,1015.82
2022-11-09T11:22:44.877Z,1015.82
2022-11-09T11:24:44.856Z,1015.82
2022-11-09T11:27:14.828Z,1015.80
2022-11-09T11:29:14.862Z,1015.80
2022-11-09T11:31:14.863Z,1015.78
2022-11-09T11:33:14.839Z,1015.75
2022-11-09T11:35:14.867Z,1015.75
2022-11-09T11:37:14.847Z,1015.75
2022-11-09T11:39:14.843Z,1015.75
2022-11-09T11:41:14.878Z,1015.68
2022-11-09T11:43:14.856Z,1015.72
2022-11-09T11:45:38.874Z,1015.72
2022-11-09T11:47:14.864Z,1015.72
2022-11-09T11:49:14.872Z,1015.61
2022-11-09T11:53:14.873Z,1015.62
2022-11-09T11:55:14.948Z,1015.61
2022-11-09T11:57:15.165Z,1015.61
2022-11-09T11:59:14.892Z,1015.60
2022-11-09T12:01:15.030Z,1015.55
2022-11-09T12:03:14.898Z,1015.50
2022-11-09T12:05:14.863Z,1015.47
2022-11-09T12:07:14.904Z,1015.47
2022-11-09T12:09:14.929Z,1015.46
2022-11-09T12:11:14.955Z,1015.51
2022-11-09T12:13:14.938Z,1015.46
2022-11-09T12:15:14.991Z,1015.46
2022-11-09T12:17:14.968Z,1015.43
2022-11-09T12:19:14.898Z,1015.43
2022-11-09T12:21:15.043Z,1015.42
2022-11-09T12:23:14.976Z,1015.43
2022-11-09T12:25:15.004Z,1015.43
2022-11-09T12:27:31.447Z,1015.42
2022-11-09T12:29:15.030Z,1015.42
2022-11-09T12:31:14.992Z,1015.40
2022-11-09T12:33:14.944Z,1015.41
2022-11-09T12:35:14.981Z,1015.41
2022-11-09T12:37:14.916Z,1015.38
2022-11-09T12:39:14.992Z,1015.40
2022-11-09T12:41:14.951Z,1015.37
2022-11-09T12:43:14.987Z,1015.37
2022-11-09T12:45:15.030Z,1015.37
2022-11-09T12:47:14.956Z,1015.36
2022-11-09T12:49:15.181Z,1015.27
2022-11-09T12:51:15.070Z,1015.25
2022-11-09T12:53:15.043Z,1015.25
2022-11-09T12:59:23.160Z,1015.25
2022-11-09T13:01:23.273Z,1015.26
2022-11-09T13:03:23.439Z,1015.26
2022-11-09T13:05:23.190Z,1015.26
2022-11-09T13:07:23.219Z,1015.24
2022-11-09T13:09:23.196Z,1015.24
2022-11-09T13:11:23.181Z,1015.24
2022-11-09T13:13:23.572Z,1015.24
2022-11-09T13:15:23.173Z,1015.18
2022-11-09T13:17:23.179Z,1015.18
2022-11-09T13:19:23.172Z,1015.19
2022-11-09T13:21:23.230Z,1015.19
2022-11-09T13:23:41.550Z,1015.17
2022-11-09T13:25:23.170Z,1015.22
2022-11-09T13:27:23.173Z,1015.16
2022-11-09T13:29:23.195Z,1015.19
2022-11-09T13:31:23.162Z,1015.19
2022-11-09T13:33:23.568Z,1015.28
2022-11-09T13:35:23.223Z,1015.29
2022-11-09T13:37:23.198Z,1015.25
2022-11-09T13:39:23.242Z,1015.25
2022-11-09T13:41:23.198Z,1015.25
2022-11-09T13:43:23.446Z,1015.31
2022-11-09T13:45:23.262Z,1015.28
2022-11-09T13:47:23.214Z,1015.36
2022-11-09T13:49:23.222Z,1015.36
2022-11-09T13:51:23.223Z,1015.40
2022-11-09T13:53:23.290Z,1015.43
2022-11-09T13:55:23.246Z,1015.44
2022-11-09T13:57:23.212Z,1015.43
2022-11-09T13:59:23.211Z,1015.43
2022-11-09T14:01:23.289Z,1015.43
2022-11-09T14:03:23.340Z,1015.45
2022-11-09T14:05:53.349Z,1015.49
2022-11-09T14:07:53.295Z,1015.46
2022-11-09T14:09:53.270Z,1015.46
2022-11-09T14:11:53.202Z,1015.50
2022-11-09T14:13:53.233Z,1015.53
2022-11-09T14:15:53.225Z,1015.56
2022-11-09T14:17:53.207Z,1015.56
2022-11-09T14:19:53.266Z,1015.56
2022-11-09T14:21:53.362Z,1015.56
2022-11-09T14:23:53.240Z,1015.58
2022-11-09T14:25:53.221Z,1015.59
2022-11-09T14:27:53.229Z,1015.59
2022-11-09T14:29:53.276Z,1015.66
2022-11-09T14:31:53.212Z,1015.66
2022-11-09T14:33:53.217Z,1015.73
2022-11-09T14:35:53.251Z,1015.77
2022-11-09T14:37:53.232Z,1015.77
2022-11-09T14:39:53.225Z,1015.82
2022-11-09T14:41:53.228Z,1015.87
2022-11-09T14:43:53.269Z,1015.91
2022-11-09T14:45:53.249Z,1015.93
2022-11-09T14:47:53.280Z,1015.93
2022-11-09T14:49:53.248Z,1015.93
2022-11-09T14:51:53.236Z,1016.04
2022-11-09T14:53:53.242Z,1016.01
2022-11-09T14:55:53.257Z,1016.01
2022-11-09T14:57:53.224Z,1016.03
2022-11-09T14:59:53.276Z,1016.06
2022-11-09T15:01:53.263Z,1016.06
2022-11-09T15:03:53.476Z,1016.16
2022-11-09T15:05:53.289Z,1016.16
2022-11-09T15:07:53.254Z,1016.21
2022-11-09T15:09:53.306Z,1016.21
2022-11-09T15:11:53.252Z,1016.22
2022-11-09T15:13:53.259Z,1016.25
2022-11-09T15:15:53.273Z,1016.25
2022-11-09T15:17:53.272Z,1016.27
2022-11-09T15:19:53.301Z,1016.25
2022-11-09T15:21:53.254Z,1016.25
2022-11-09T15:23:53.266Z,1016.25
2022-11-09T15:25:53.340Z,1016.28
2022-11-09T15:27:53.403Z,1016.32
2022-11-09T15:29:53.283Z,1016.30
2022-11-09T15:31:53.276Z,1016.30
2022-11-09T15:33:53.256Z,1016.30
2022-11-09T15:35:53.306Z,1016.33
2022-11-09T15:37:53.347Z,1016.30
2022-11-09T15:39:53.271Z,1016.29
2022-11-09T15:41:53.290Z,1016.29
2022-11-09T15:43:53.297Z,1016.29
2022-11-09T15:45:53.315Z,1016.29
2022-11-09T15:47:53.289Z,1016.30
2022-11-09T15:49:53.306Z,1016.33
2022-11-09T15:51:53.295Z,1016.33
2022-11-09T15:53:53.344Z,1016.31
2022-11-09T15:55:53.292Z,1016.28
2022-11-09T15:57:53.311Z,1016.29
2022-11-09T15:59:53.304Z,1016.29
2022-11-09T16:01:53.287Z,1016.29
2022-11-09T16:03:53.325Z,1016.29
2022-11-09T16:05:53.314Z,1016.33
2022-11-09T16:08:23.796Z,1016.33
2022-11-09T16:10:23.323Z,1016.38
2022-11-09T16:12:23.329Z,1016.47
2022-11-09T16:14:23.304Z,1016.48
2022-11-09T16:16:23.296Z,1016.48
2022-11-09T16:18:26.116Z,1016.47
2022-11-09T16:20:23.353Z,1016.40
2022-11-09T16:22:23.351Z,1016.40
2022-11-09T16:24:23.541Z,1016.40
2022-11-09T16:26:23.288Z,1016.52
2022-11-09T16:28:23.565Z,1016.57
2022-11-09T16:30:23.403Z,1016.61
2022-11-09T16:32:23.418Z,1016.63
2022-11-09T16:34:23.309Z,1016.63
2022-11-09T16:36:23.305Z,1016.60
2022-11-09T16:38:23.607Z,1016.63
2022-11-09T16:40:23.308Z,1016.63
2022-11-09T16:42:23.338Z,1016.67
2022-11-09T16:44:23.342Z,1016.67
2022-11-09T16:46:23.348Z,1016.68
2022-11-09T16:48:23.608Z,1016.73
2022-11-09T16:50:23.340Z,1016.79
2022-11-09T16:52:23.364Z,1016.79
2022-11-09T16:54:23.310Z,1016.84
2022-11-09T16:56:23.349Z,1016.90
2022-11-09T16:58:23.619Z,1016.95
2022-11-09T17:00:23.336Z,1017.02
2022-11-09T17:02:23.445Z,1017.02
2022-11-09T17:04:23.385Z,1017.02
2022-11-09T17:06:23.339Z,1016.98
2022-11-09T17:08:23.518Z,1016.97
2022-11-09T17:10:23.373Z,1016.97
2022-11-09T17:12:23.355Z,1016.97
2022-11-09T17:14:23.345Z,1017.02
2022-11-09T17:16:23.452Z,1017.06
2022-11-09T17:18:23.774Z,1017.20
2022-11-09T17:20:23.371Z,1017.20
2022-11-09T17:22:23.396Z,1017.19
2022-11-09T17:24:23.406Z,1017.25
2022-11-09T17:26:23.436Z,1017.29
2022-11-09T17:28:23.468Z,1017.29
2022-11-09T17:30:23.339Z,1017.29
2022-11-09T17:32:23.434Z,1017.36
2022-11-09T17:34:23.371Z,1017.36
2022-11-09T17:36:41.899Z,1017.36
2022-11-09T17:38:23.527Z,1017.36
2022-11-09T17:40:23.416Z,1017.36
2022-11-09T17:42:23.411Z,1017.36
2022-11-09T17:44:23.465Z,1017.36
2022-11-09T17:46:23.440Z,1017.57
2022-11-09T17:48:23.671Z,1017.57
2022-11-09T17:50:23.384Z,1017.57
2022-11-09T17:52:24.449Z,1017.67
2022-11-09T17:54:23.406Z,1017.67
2022-11-09T17:56:23.464Z,1017.67
2022-11-09T17:58:23.559Z,1017.67
2022-11-09T18:00:23.501Z,1017.74
2022-11-09T18:02:23.502Z,1017.81
2022-11-09T18:04:23.471Z,1017.83
2022-11-09T18:06:23.393Z,1017.88
2022-11-09T18:08:23.569Z,1017.88
2022-11-09T18:10:53.428Z,1017.88
2022-11-09T18:12:53.435Z,1017.88
2022-11-09T18:14:53.540Z,1017.91
2022-11-09T18:16:53.473Z,1017.94
2022-11-09T18:18:53.562Z,1017.94
2022-11-09T18:20:53.416Z,1017.97
2022-11-09T18:22:53.410Z,1018.00
2022-11-09T18:24:53.458Z,1018.00
2022-11-09T18:26:53.520Z,1018.00
2022-11-09T18:28:53.537Z,1018.07
2022-11-09T18:30:53.423Z,1018.04
2022-11-09T18:32:53.564Z,1018.08
2022-11-09T18:34:53.578Z,1018.11
2022-11-09T18:36:53.420Z,1018.11
2022-11-09T18:38:53.446Z,1018.06
2022-11-09T18:40:53.453Z,1018.07
2022-11-09T18:42:53.438Z,1018.06
2022-11-09T18:44:53.478Z,1018.06
2022-11-09T18:46:53.534Z,1018.06
2022-11-09T18:48:53.534Z,1018.04
2022-11-09T18:50:53.439Z,1018.08
2022-11-09T18:52:53.609Z,1018.09
2022-11-09T18:54:53.561Z,1018.09
2022-11-09T18:56:53.534Z,1018.07
2022-11-09T18:58:53.550Z,1018.07
2022-11-09T19:00:53.593Z,1018.10
2022-11-09T19:02:53.634Z,1018.06
2022-11-09T19:04:53.599Z,1018.06
2022-11-09T19:06:53.546Z,1018.06
2022-11-09T19:09:02.338Z,1018.11
2022-11-09T19:11:02.241Z,1018.17
2022-11-09T19:13:02.254Z,1018.18
2022-11-09T19:15:02.269Z,1018.19
2022-11-09T19:17:02.275Z,1018.16
2022-11-09T19:19:02.298Z,1018.16
2022-11-09T19:21:02.313Z,1018.24
2022-11-09T19:23:02.333Z,1018.25
2022-11-09T19:25:02.153Z,1018.29
2022-11-09T19:27:02.219Z,1018.29
2022-11-09T19:29:02.214Z,1018.34
2022-11-09T19:31:02.217Z,1018.34
2022-11-09T19:33:02.299Z,1018.40
2022-11-09T19:35:02.315Z,1018.41
2022-11-09T19:37:02.223Z,1018.41
2022-11-09T19:39:02.317Z,1018.41
2022-11-09T19:41:02.235Z,1018.48
2022-11-09T19:43:02.229Z,1018.48
2022-11-09T19:45:02.244Z,1018.48
2022-11-09T19:47:02.215Z,1018.48
2022-11-09T19:49:02.235Z,1018.59
2022-11-09T19:51:02.339Z,1018.68
2022-11-09T19:53:02.338Z,1018.74
2022-11-09T19:55:02.303Z,1018.74
2022-11-09T19:57:02.875Z,1018.74
2022-11-09T19:59:02.214Z,1018.75
2022-11-09T20:01:02.276Z,1018.82
2022-11-09T20:03:02.264Z,1018.85
2022-11-09T20:05:02.284Z,1018.85
2022-11-09T20:07:02.226Z,1018.85
2022-11-09T20:09:02.278Z,1018.81
2022-11-09T20:11:02.225Z,1018.81
2022-11-09T20:13:02.213Z,1018.85
2022-11-09T20:15:02.161Z,1018.85
2022-11-09T20:17:03.631Z,1018.92
2022-11-09T20:19:02.239Z,1018.97
2022-11-09T20:21:02.186Z,1018.98
2022-11-09T20:23:02.198Z,1018.98
2022-11-09T20:25:02.338Z,1019.02
2022-11-09T20:27:02.272Z,1019.02
2022-11-09T20:29:02.253Z,1019.07
2022-11-09T20:31:02.173Z,1019.09
2022-11-09T20:33:02.206Z,1019.09
2022-11-09T20:35:02.278Z,1019.17
2022-11-09T20:37:02.167Z,1019.17
2022-11-09T20:39:02.187Z,1019.19
2022-11-09T20:41:02.176Z,1019.24
2022-11-09T20:43:32.277Z,1019.24
2022-11-09T20:45:32.177Z,1019.24
2022-11-09T20:48:02.060Z,1019.28
2022-11-09T20:49:32.285Z,1019.30
2022-11-09T20:51:32.287Z,1019.34
2022-11-09T20:53:32.227Z,1019.34
2022-11-09T20:55:32.322Z,1019.36
2022-11-09T20:57:32.215Z,1019.40
2022-11-09T20:59:32.230Z,1019.45
2022-11-09T21:01:32.718Z,1019.45
2022-11-09T21:03:32.272Z,1019.45
2022-11-09T21:05:32.219Z,1019.50
2022-11-09T21:07:32.218Z,1019.50
2022-11-09T21:09:32.311Z,1019.58
2022-11-09T21:11:32.221Z,1019.58
2022-11-09T21:13:32.194Z,1019.59
2022-11-09T21:15:32.210Z,1019.59
2022-11-09T21:17:32.302Z,1019.60
2022-11-09T21:19:32.329Z,1019.64
2022-11-09T21:21:36.323Z,1019.64
2022-11-09T21:23:32.238Z,1019.70
2022-11-09T21:25:32.205Z,1019.68
2022-11-09T21:27:32.200Z,1019.76
2022-11-09T21:29:32.241Z,1019.76
2022-11-09T21:31:32.233Z,1019.77
2022-11-09T21:33:32.216Z,1019.77
2022-11-09T21:35:32.255Z,1019.81
2022-11-09T21:37:32.213Z,1019.85
2022-11-09T21:39:32.204Z,1019.85
2022-11-09T21:41:32.219Z,1019.82
2022-11-09T21:43:32.275Z,1019.83
2022-11-09T21:45:32.260Z,1019.86
2022-11-09T21:47:32.209Z,1019.86
2022-11-09T21:49:32.235Z,1019.86
2022-11-09T21:51:32.277Z,1019.94
2022-11-09T21:53:32.212Z,1019.94
2022-11-09T21:55:32.359Z,1019.94
2022-11-09T21:57:32.267Z,1019.94
2022-11-09T21:59:32.280Z,1020.03
2022-11-09T22:01:32.379Z,1020.04
2022-11-09T22:03:32.346Z,1020.08
2022-11-09T22:05:32.278Z,1020.15
2022-11-09T22:07:32.251Z,1020.15
2022-11-09T22:09:50.594Z,1020.15
2022-11-09T22:11:32.273Z,1020.16
2022-11-09T22:13:32.247Z,1020.16
2022-11-09T22:15:32.242Z,1020.23
2022-11-09T22:17:32.256Z,1020.23
2022-11-09T22:19:32.224Z,1020.24
2022-11-09T22:21:32.331Z,1020.24
2022-11-09T22:23:32.276Z,1020.29
2022-11-09T22:25:32.223Z,1020.29
2022-11-09T22:27:32.318Z,1020.32
2022-11-09T22:29:32.254Z,1020.32
2022-11-09T22:31:32.285Z,1020.41
2022-11-09T22:33:32.631Z,1020.41
2022-11-09T22:35:32.238Z,1020.41
2022-11-09T22:37:32.274Z,1020.42
2022-11-09T22:40:02.447Z,1020.42
2022-11-09T22:42:02.271Z,1020.50
2022-11-09T22:44:02.284Z,1020.51
2022-11-09T22:46:02.294Z,1020.54
2022-11-09T22:48:02.352Z,1020.57
2022-11-09T22:50:02.337Z,1020.57
2022-11-09T22:52:02.311Z,1020.65
2022-11-09T22:54:02.353Z,1020.62
2022-11-09T22:56:02.304Z,1020.66
2022-11-09T22:58:02.358Z,1020.66
2022-11-09T23:00:02.306Z,1020.73
2022-11-09T23:02:02.390Z,1020.76
2022-11-09T23:04:02.270Z,1020.83
2022-11-09T23:06:02.264Z,1020.84
2022-11-09T23:08:02.282Z,1020.84
2022-11-09T23:10:02.291Z,1020.84
2022-11-09T23:12:02.367Z,1020.89
2022-11-09T23:14:02.322Z,1020.92
2022-11-09T23:16:02.371Z,1020.99
2022-11-09T23:18:02.364Z,1020.99
2022-11-09T23:20:02.367Z,1020.99
2022-11-09T23:22:02.306Z,1021.01
2022-11-09T23:24:02.330Z,1021.06
2022-11-09T23:26:02.259Z,1021.06
2022-11-09T23:28:02.312Z,1021.09
2022-11-09T23:30:02.368Z,1021.13
2022-11-09T23:32:02.314Z,1021.22
2022-11-09T23:34:07.348Z,1021.20
2022-11-09T23:36:02.293Z,1021.20
2022-11-09T23:38:02.302Z,1021.19
2022-11-09T23:40:02.320Z,1021.27
2022-11-09T23:42:02.337Z,1021.31
2022-11-09T23:44:02.298Z,1021.32
2022-11-09T23:46:02.373Z,1021.32
2022-11-09T23:48:02.287Z,1021.33
2022-11-09T23:50:02.382Z,1021.33
2022-11-09T23:52:02.323Z,1021.41
2022-11-09T23:54:02.403Z,1021.46
2022-11-09T23:56:02.279Z,1021.46
2022-11-09T23:58:02.363Z,1021.44
